sensor_id;sensor_type;location;lat;lon;timestamp;pressure;altitude;pressure_sealevel;temperature;humidity
60852;BME280;48553;50.766;2.900;2023-03-13T00:02:23;99509.19;;;10.12;95.01
60852;BME280;48553;50.766;2.900;2023-03-13T00:05:24;99513.53;;;10.13;95.75
60852;BME280;48553;50.766;2.900;2023-03-13T00:08:27;99504.50;;;10.13;95.61
60852;BME280;48553;50.766;2.900;2023-03-13T00:11:28;99501.06;;;10.16;95.33
60852;BME280;48553;50.766;2.900;2023-03-13T00:14:29;99510.06;;;10.16;95.09
60852;BME280;48553;50.766;2.900;2023-03-13T00:17:29;99504.22;;;10.18;95.53
60852;BME280;48553;50.766;2.900;2023-03-13T00:20:29;99506.97;;;10.18;95.01
60852;BME280;48553;50.766;2.900;2023-03-13T00:23:31;99505.00;;;10.18;96.53
60852;BME280;48553;50.766;2.900;2023-03-13T00:26:32;99489.38;;;10.19;95.72
60852;BME280;48553;50.766;2.900;2023-03-13T00:29:33;99491.75;;;10.20;95.88
60852;BME280;48553;50.766;2.900;2023-03-13T00:32:39;99487.84;;;10.21;95.73
60852;BME280;48553;50.766;2.900;2023-03-13T00:35:40;99487.13;;;10.24;96.11
60852;BME280;48553;50.766;2.900;2023-03-13T00:38:40;99480.06;;;10.23;95.42
60852;BME280;48553;50.766;2.900;2023-03-13T00:41:41;99475.00;;;10.25;96.71
60852;BME280;48553;50.766;2.900;2023-03-13T00:44:41;99471.13;;;10.27;96.20
60852;BME280;48553;50.766;2.900;2023-03-13T00:47:41;99463.34;;;10.29;96.26
60852;BME280;48553;50.766;2.900;2023-03-13T00:50:42;99464.94;;;10.30;96.44
60852;BME280;48553;50.766;2.900;2023-03-13T00:53:43;99455.56;;;10.31;96.77
60852;BME280;48553;50.766;2.900;2023-03-13T00:56:43;99441.50;;;10.32;97.34
60852;BME280;48553;50.766;2.900;2023-03-13T00:59:44;99442.72;;;10.35;97.04
60852;BME280;48553;50.766;2.900;2023-03-13T01:02:44;99443.13;;;10.33;98.33
60852;BME280;48553;50.766;2.900;2023-03-13T01:05:45;99429.41;;;10.33;97.13
60852;BME280;48553;50.766;2.900;2023-03-13T01:08:54;99413.81;;;10.37;98.38
60852;BME280;48553;50.766;2.900;2023-03-13T01:11:55;99422.03;;;10.37;98.08
60852;BME280;48553;50.766;2.900;2023-03-13T01:14:55;99417.38;;;10.38;97.49
60852;BME280;48553;50.766;2.900;2023-03-13T01:17:55;99424.41;;;10.39;99.00
60852;BME280;48553;50.766;2.900;2023-03-13T01:20:56;99422.44;;;10.39;97.34
60852;BME280;48553;50.766;2.900;2023-03-13T01:23:57;99407.63;;;10.40;97.33
60852;BME280;48553;50.766;2.900;2023-03-13T01:26:57;99401.75;;;10.42;98.69
60852;BME280;48553;50.766;2.900;2023-03-13T01:29:57;99400.97;;;10.41;97.68
60852;BME280;48553;50.766;2.900;2023-03-13T01:32:58;99391.59;;;10.42;98.14
60852;BME280;48553;50.766;2.900;2023-03-13T01:36:02;99408.09;;;10.46;98.72
60852;BME280;48553;50.766;2.900;2023-03-13T01:39:04;99394.38;;;10.46;98.79
60852;BME280;48553;50.766;2.900;2023-03-13T01:42:05;99390.50;;;10.47;98.82
60852;BME280;48553;50.766;2.900;2023-03-13T01:45:48;99381.53;;;10.50;100.00
60852;BME280;48553;50.766;2.900;2023-03-13T01:52:14;99355.72;;;10.51;99.80
60852;BME280;48553;50.766;2.900;2023-03-13T01:55:16;99372.16;;;10.51;99.23
60852;BME280;48553;50.766;2.900;2023-03-13T01:58:16;99362.78;;;10.52;100.00
60852;BME280;48553;50.766;2.900;2023-03-13T02:01:18;99371.78;;;10.53;100.00
60852;BME280;48553;50.766;2.900;2023-03-13T02:04:21;99367.16;;;10.57;100.00
60852;BME280;48553;50.766;2.900;2023-03-13T02:07:30;99363.63;;;10.56;100.00
60852;BME280;48553;50.766;2.900;2023-03-13T02:10:36;99360.50;;;10.58;100.00
60852;BME280;48553;50.766;2.900;2023-03-13T02:13:38;99375.41;;;10.60;100.00
60852;BME280;48553;50.766;2.900;2023-03-13T02:16:39;99358.19;;;10.60;100.00
60852;BME280;48553;50.766;2.900;2023-03-13T02:19:48;99344.91;;;10.62;100.00
60852;BME280;48553;50.766;2.900;2023-03-13T02:26:11;99335.13;;;10.61;100.00
60852;BME280;48553;50.766;2.900;2023-03-13T02:29:12;99332.81;;;10.63;100.00
60852;BME280;48553;50.766;2.900;2023-03-13T02:32:17;99330.47;;;10.65;100.00
60852;BME280;48553;50.766;2.900;2023-03-13T02:35:20;99328.53;;;10.65;100.00
60852;BME280;48553;50.766;2.900;2023-03-13T02:38:24;99331.28;;;10.65;100.00
60852;BME280;48553;50.766;2.900;2023-03-13T02:41:27;99328.16;;;10.67;100.00
60852;BME280;48553;50.766;2.900;2023-03-13T02:44:28;99307.47;;;10.70;100.00
60852;BME280;48553;50.766;2.900;2023-03-13T02:47:28;99316.03;;;10.68;100.00
60852;BME280;48553;50.766;2.900;2023-03-13T02:50:29;99328.56;;;10.69;100.00
60852;BME280;48553;50.766;2.900;2023-03-13T02:53:30;99319.63;;;10.72;100.00
60852;BME280;48553;50.766;2.900;2023-03-13T02:56:33;99318.81;;;10.72;100.00
60852;BME280;48553;50.766;2.900;2023-03-13T02:59:35;99315.69;;;10.73;100.00
60852;BME280;48553;50.766;2.900;2023-03-13T03:02:36;99323.13;;;10.73;100.00
60852;BME280;48553;50.766;2.900;2023-03-13T03:05:36;99316.50;;;10.74;100.00
60852;BME280;48553;50.766;2.900;2023-03-13T03:08:37;99311.00;;;10.74;100.00
60852;BME280;48553;50.766;2.900;2023-03-13T03:11:40;99310.63;;;10.75;100.00
60852;BME280;48553;50.766;2.900;2023-03-13T03:14:40;99302.84;;;10.77;100.00
60852;BME280;48553;50.766;2.900;2023-03-13T03:17:41;99282.06;;;10.76;100.00
60852;BME280;48553;50.766;2.900;2023-03-13T03:20:41;99273.47;;;10.78;100.00
60852;BME280;48553;50.766;2.900;2023-03-13T03:23:42;99267.22;;;10.77;100.00
60852;BME280;48553;50.766;2.900;2023-03-13T03:26:42;99264.91;;;10.79;100.00
60852;BME280;48553;50.766;2.900;2023-03-13T03:29:43;99265.25;;;10.78;100.00
60852;BME280;48553;50.766;2.900;2023-03-13T03:32:43;99283.69;;;10.81;100.00
60852;BME280;48553;50.766;2.900;2023-03-13T03:35:43;99286.44;;;10.81;100.00
60852;BME280;48553;50.766;2.900;2023-03-13T03:38:45;99298.19;;;10.81;100.00
60852;BME280;48553;50.766;2.900;2023-03-13T03:41:45;99304.47;;;10.82;100.00
60852;BME280;48553;50.766;2.900;2023-03-13T03:44:46;99291.53;;;10.82;100.00
60852;BME280;48553;50.766;2.900;2023-03-13T03:47:46;99288.81;;;10.82;100.00
60852;BME280;48553;50.766;2.900;2023-03-13T03:50:47;99288.81;;;10.82;100.00
60852;BME280;48553;50.766;2.900;2023-03-13T03:53:47;99274.31;;;10.82;100.00
60852;BME280;48553;50.766;2.900;2023-03-13T03:56:47;99282.19;;;10.83;100.00
60852;BME280;48553;50.766;2.900;2023-03-13T03:59:48;99284.91;;;10.83;100.00
60852;BME280;48553;50.766;2.900;2023-03-13T04:02:48;99289.22;;;10.84;100.00
60852;BME280;48553;50.766;2.900;2023-03-13T04:05:49;99284.91;;;10.83;100.00
60852;BME280;48553;50.766;2.900;2023-03-13T04:08:49;99291.97;;;10.84;100.00
60852;BME280;48553;50.766;2.900;2023-03-13T04:11:50;99293.56;;;10.85;100.00
60852;BME280;48553;50.766;2.900;2023-03-13T04:14:50;99284.53;;;10.85;100.00
60852;BME280;48553;50.766;2.900;2023-03-13T04:17:50;99290.00;;;10.85;100.00
60852;BME280;48553;50.766;2.900;2023-03-13T04:21:00;99284.94;;;10.87;100.00
60852;BME280;48553;50.766;2.900;2023-03-13T04:24:01;99270.03;;;10.84;100.00
60852;BME280;48553;50.766;2.900;2023-03-13T04:27:01;99257.94;;;10.85;100.00
60852;BME280;48553;50.766;2.900;2023-03-13T04:30:03;99247.75;;;10.86;100.00
60852;BME280;48553;50.766;2.900;2023-03-13T04:33:03;99236.00;;;10.85;100.00
60852;BME280;48553;50.766;2.900;2023-03-13T04:36:04;99244.22;;;10.85;100.00
60852;BME280;48553;50.766;2.900;2023-03-13T04:39:05;99237.56;;;10.86;100.00
60852;BME280;48553;50.766;2.900;2023-03-13T04:42:05;99249.31;;;10.87;100.00
60852;BME280;48553;50.766;2.900;2023-03-13T04:45:08;99237.56;;;10.86;100.00
60852;BME280;48553;50.766;2.900;2023-03-13T04:48:09;99233.25;;;10.85;100.00
60852;BME280;48553;50.766;2.900;2023-03-13T04:51:10;99240.31;;;10.86;100.00
60852;BME280;48553;50.766;2.900;2023-03-13T04:54:11;99247.75;;;10.86;100.00
60852;BME280;48553;50.766;2.900;2023-03-13T04:57:11;99236.38;;;10.87;100.00
60852;BME280;48553;50.766;2.900;2023-03-13T05:00:12;99234.81;;;10.86;100.00
60852;BME280;48553;50.766;2.900;2023-03-13T05:03:13;99228.16;;;10.87;99.87
60852;BME280;48553;50.766;2.900;2023-03-13T05:06:13;99226.59;;;10.86;100.00
60852;BME280;48553;50.766;2.900;2023-03-13T05:09:14;99210.94;;;10.87;99.92
60852;BME280;48553;50.766;2.900;2023-03-13T05:12:14;99211.72;;;10.87;99.46
60852;BME280;48553;50.766;2.900;2023-03-13T05:15:14;99201.94;;;10.86;99.53
60852;BME280;48553;50.766;2.900;2023-03-13T05:18:15;99201.94;;;10.86;99.35
60852;BME280;48553;50.766;2.900;2023-03-13T05:21:15;99190.97;;;10.86;99.84
60852;BME280;48553;50.766;2.900;2023-03-13T05:24:16;99191.75;;;10.87;99.45
60852;BME280;48553;50.766;2.900;2023-03-13T05:27:16;99181.97;;;10.86;99.24
60852;BME280;48553;50.766;2.900;2023-03-13T05:30:17;99183.13;;;10.85;99.83
60852;BME280;48553;50.766;2.900;2023-03-13T05:33:18;99181.19;;;10.85;99.35
60852;BME280;48553;50.766;2.900;2023-03-13T05:36:19;99186.28;;;10.87;98.96
60852;BME280;48553;50.766;2.900;2023-03-13T05:39:19;99178.84;;;10.87;99.25
60852;BME280;48553;50.766;2.900;2023-03-13T05:42:20;99189.78;;;10.87;99.73
60852;BME280;48553;50.766;2.900;2023-03-13T05:45:20;99184.72;;;10.86;100.00
60852;BME280;48553;50.766;2.900;2023-03-13T05:48:21;99199.63;;;10.89;99.52
60852;BME280;48553;50.766;2.900;2023-03-13T05:51:21;99182.00;;;10.90;99.47
60852;BME280;48553;50.766;2.900;2023-03-13T05:54:22;99190.59;;;10.88;99.35
60852;BME280;48553;50.766;2.900;2023-03-13T05:57:22;99192.94;;;10.90;99.35
60852;BME280;48553;50.766;2.900;2023-03-13T06:00:23;99187.47;;;10.90;99.03
60852;BME280;48553;50.766;2.900;2023-03-13T06:03:23;99187.09;;;10.91;99.51
60852;BME280;48553;50.766;2.900;2023-03-13T06:06:24;99178.09;;;10.91;99.18
60852;BME280;48553;50.766;2.900;2023-03-13T06:09:24;99176.13;;;10.91;99.02
60852;BME280;48553;50.766;2.900;2023-03-13T06:12:24;99164.00;;;10.92;99.37
60852;BME280;48553;50.766;2.900;2023-03-13T06:15:25;99164.81;;;10.93;98.92
60852;BME280;48553;50.766;2.900;2023-03-13T06:18:25;99165.19;;;10.91;100.00
60852;BME280;48553;50.766;2.900;2023-03-13T06:21:26;99171.06;;;10.93;99.18
60852;BME280;48553;50.766;2.900;2023-03-13T06:24:27;99175.78;;;10.93;99.53
60852;BME280;48553;50.766;2.900;2023-03-13T06:27:27;99173.81;;;10.93;99.42
60852;BME280;48553;50.766;2.900;2023-03-13T06:30:27;99172.63;;;10.94;100.00
60852;BME280;48553;50.766;2.900;2023-03-13T06:33:28;99199.69;;;10.96;99.97
60852;BME280;48553;50.766;2.900;2023-03-13T06:36:29;99181.66;;;10.95;99.82
60852;BME280;48553;50.766;2.900;2023-03-13T06:39:29;99180.50;;;10.96;100.00
60852;BME280;48553;50.766;2.900;2023-03-13T06:42:30;99181.28;;;10.96;100.00
60852;BME280;48553;50.766;2.900;2023-03-13T06:45:30;99175.78;;;10.96;100.00
60852;BME280;48553;50.766;2.900;2023-03-13T06:48:30;99166.00;;;10.95;100.00
60852;BME280;48553;50.766;2.900;2023-03-13T06:51:31;99182.88;;;10.97;100.00
60852;BME280;48553;50.766;2.900;2023-03-13T06:54:32;99184.44;;;10.98;100.00
60852;BME280;48553;50.766;2.900;2023-03-13T06:57:32;99189.91;;;10.98;100.00
60852;BME280;48553;50.766;2.900;2023-03-13T07:00:33;99188.38;;;11.01;99.77
60852;BME280;48553;50.766;2.900;2023-03-13T07:03:34;99200.13;;;11.01;100.00
60852;BME280;48553;50.766;2.900;2023-03-13T07:06:35;99211.88;;;11.02;100.00
60852;BME280;48553;50.766;2.900;2023-03-13T07:09:35;99180.56;;;11.03;100.00
60852;BME280;48553;50.766;2.900;2023-03-13T07:12:36;99179.00;;;11.05;100.00
60852;BME280;48553;50.766;2.900;2023-03-13T07:15:37;99191.16;;;11.08;100.00
60852;BME280;48553;50.766;2.900;2023-03-13T07:18:38;99179.41;;;11.07;100.00
60852;BME280;48553;50.766;2.900;2023-03-13T07:21:41;99186.91;;;11.11;100.00
60852;BME280;48553;50.766;2.900;2023-03-13T07:24:41;99188.53;;;11.15;100.00
60852;BME280;48553;50.766;2.900;2023-03-13T07:27:42;99182.25;;;11.18;100.00
60852;BME280;48553;50.766;2.900;2023-03-13T07:30:42;99178.75;;;11.21;100.00
60852;BME280;48553;50.766;2.900;2023-03-13T07:33:43;99161.56;;;11.24;100.00
60852;BME280;48553;50.766;2.900;2023-03-13T07:36:44;99167.84;;;11.28;100.00
60852;BME280;48553;50.766;2.900;2023-03-13T07:39:44;99163.53;;;11.27;100.00
60852;BME280;48553;50.766;2.900;2023-03-13T07:42:45;99171.41;;;11.33;100.00
60852;BME280;48553;50.766;2.900;2023-03-13T07:45:59;99159.25;;;11.30;100.00
60852;BME280;48553;50.766;2.900;2023-03-13T07:49:00;99163.19;;;11.33;100.00
60852;BME280;48553;50.766;2.900;2023-03-13T07:52:00;99162.44;;;11.36;100.00
60852;BME280;48553;50.766;2.900;2023-03-13T07:55:00;99142.06;;;11.37;100.00
60852;BME280;48553;50.766;2.900;2023-03-13T07:58:01;99140.50;;;11.39;100.00
60852;BME280;48553;50.766;2.900;2023-03-13T08:01:10;99138.94;;;11.42;100.00
60852;BME280;48553;50.766;2.900;2023-03-13T08:04:12;99142.91;;;11.48;100.00
60852;BME280;48553;50.766;2.900;2023-03-13T08:07:13;99135.09;;;11.50;100.00
60852;BME280;48553;50.766;2.900;2023-03-13T08:10:13;99132.00;;;11.55;100.00
60852;BME280;48553;50.766;2.900;2023-03-13T08:13:14;99126.50;;;11.55;100.00
60852;BME280;48553;50.766;2.900;2023-03-13T08:19:16;99146.16;;;11.61;100.00
60852;BME280;48553;50.766;2.900;2023-03-13T08:22:16;99141.09;;;11.66;100.00
60852;BME280;48553;50.766;2.900;2023-03-13T08:25:17;99137.19;;;11.67;100.00
60852;BME280;48553;50.766;2.900;2023-03-13T08:28:17;99127.34;;;11.66;100.00
60852;BME280;48553;50.766;2.900;2023-03-13T08:31:20;99135.22;;;11.71;100.00
60852;BME280;48553;50.766;2.900;2023-03-13T08:34:21;99145.84;;;11.77;100.00
60852;BME280;48553;50.766;2.900;2023-03-13T08:37:21;99138.41;;;11.81;100.00
60852;BME280;48553;50.766;2.900;2023-03-13T08:40:21;99135.31;;;11.86;100.00
60852;BME280;48553;50.766;2.900;2023-03-13T08:43:22;99142.03;;;11.92;100.00
60852;BME280;48553;50.766;2.900;2023-03-13T08:46:23;99140.50;;;11.98;100.00
60852;BME280;48553;50.766;2.900;2023-03-13T08:49:24;99120.53;;;12.05;100.00
60852;BME280;48553;50.766;2.900;2023-03-13T08:52:24;99131.94;;;12.10;100.00
60852;BME280;48553;50.766;2.900;2023-03-13T08:55:25;99118.59;;;12.12;100.00
60852;BME280;48553;50.766;2.900;2023-03-13T08:58:26;99113.47;;;12.07;99.84
60852;BME280;48553;50.766;2.900;2023-03-13T09:01:31;99114.66;;;12.10;99.83
60852;BME280;48553;50.766;2.900;2023-03-13T09:04:33;99109.97;;;12.10;98.85
60852;BME280;48553;50.766;2.900;2023-03-13T09:07:33;99109.97;;;12.14;98.92
60852;BME280;48553;50.766;2.900;2023-03-13T09:10:34;99099.41;;;12.20;98.88
60852;BME280;48553;50.766;2.900;2023-03-13T09:13:38;99109.22;;;12.21;99.09
60852;BME280;48553;50.766;2.900;2023-03-13T09:16:39;99098.22;;;12.21;98.82
60852;BME280;48553;50.766;2.900;2023-03-13T09:19:39;99096.69;;;12.27;98.84
60852;BME280;48553;50.766;2.900;2023-03-13T09:22:39;99099.06;;;12.39;98.61
60852;BME280;48553;50.766;2.900;2023-03-13T09:25:40;99106.16;;;12.51;97.88
60852;BME280;48553;50.766;2.900;2023-03-13T09:28:41;99096.75;;;12.59;97.25
60852;BME280;48553;50.766;2.900;2023-03-13T09:31:42;99114.44;;;12.62;97.04
60852;BME280;48553;50.766;2.900;2023-03-13T09:34:42;99098.31;;;12.60;96.87
60852;BME280;48553;50.766;2.900;2023-03-13T09:37:43;99086.94;;;12.62;96.32
60852;BME280;48553;50.766;2.900;2023-03-13T09:40:45;99073.59;;;12.57;96.21
60852;BME280;48553;50.766;2.900;2023-03-13T09:50:33;99061.03;;;12.59;93.95
60852;BME280;48553;50.766;2.900;2023-03-13T09:53:43;99075.56;;;12.56;93.94
60852;BME280;48553;50.766;2.900;2023-03-13T09:56:53;99084.19;;;12.62;93.02
60852;BME280;48553;50.766;2.900;2023-03-13T10:03:16;99064.97;;;12.69;91.81
60852;BME280;48553;50.766;2.900;2023-03-13T10:06:20;99079.13;;;12.67;91.08
60852;BME280;48553;50.766;2.900;2023-03-13T10:09:29;99056.72;;;12.69;90.52
60852;BME280;48553;50.766;2.900;2023-03-13T10:12:36;99052.03;;;12.69;88.38
60852;BME280;48553;50.766;2.900;2023-03-13T10:15:51;99042.59;;;12.74;88.10
60852;BME280;48553;50.766;2.900;2023-03-13T10:18:57;99035.50;;;12.80;88.52
60852;BME280;48553;50.766;2.900;2023-03-13T10:22:01;99046.91;;;12.89;89.51
60852;BME280;48553;50.766;2.900;2023-03-13T10:28:10;99040.97;;;13.12;88.25
60852;BME280;48553;50.766;2.900;2023-03-13T10:31:27;99038.63;;;13.07;88.50
60852;BME280;48553;50.766;2.900;2023-03-13T10:34:55;99028.03;;;13.09;89.20
60852;BME280;48553;50.766;2.900;2023-03-13T10:38:05;99031.53;;;13.35;89.08
60852;BME280;48553;50.766;2.900;2023-03-13T10:41:25;99021.31;;;13.43;88.20
60852;BME280;48553;50.766;2.900;2023-03-13T10:44:31;99025.63;;;13.47;87.77
60852;BME280;48553;50.766;2.900;2023-03-13T10:47:33;99020.09;;;13.51;87.38
60852;BME280;48553;50.766;2.900;2023-03-13T10:50:34;99015.41;;;13.48;86.04
60852;BME280;48553;50.766;2.900;2023-03-13T10:53:36;99002.78;;;13.61;85.89
60852;BME280;48553;50.766;2.900;2023-03-13T10:56:36;98993.66;;;13.75;86.51
60852;BME280;48553;50.766;2.900;2023-03-13T10:59:43;99015.63;;;13.93;85.34
60852;BME280;48553;50.766;2.900;2023-03-13T11:02:44;99008.41;;;14.13;84.98
60852;BME280;48553;50.766;2.900;2023-03-13T11:05:59;99004.78;;;14.27;84.71
60852;BME280;48553;50.766;2.900;2023-03-13T11:12:17;98986.88;;;14.60;83.59
60852;BME280;48553;50.766;2.900;2023-03-13T11:15:23;98983.97;;;14.78;83.25
60852;BME280;48553;50.766;2.900;2023-03-13T11:28:38;98986.81;;;15.47;81.63
60852;BME280;48553;50.766;2.900;2023-03-13T11:31:56;98975.63;;;15.58;80.33
60852;BME280;48553;50.766;2.900;2023-03-13T11:35:00;98978.09;;;15.49;79.81
60852;BME280;48553;50.766;2.900;2023-03-13T11:38:15;98983.41;;;15.32;80.83
60852;BME280;48553;50.766;2.900;2023-03-13T11:41:25;98978.75;;;15.25;79.26
60852;BME280;48553;50.766;2.900;2023-03-13T11:44:52;98958.38;;;15.12;77.30
60852;BME280;48553;50.766;2.900;2023-03-13T11:54:44;98962.44;;;15.69;76.80
60852;BME280;48553;50.766;2.900;2023-03-13T12:01:24;98956.78;;;15.83;75.83
60852;BME280;48553;50.766;2.900;2023-03-13T12:04:51;98926.91;;;16.02;75.68
60852;BME280;48553;50.766;2.900;2023-03-13T12:08:14;98947.03;;;16.02;75.89
60852;BME280;48553;50.766;2.900;2023-03-13T12:11:23;98925.66;;;16.06;74.93
60852;BME280;48553;50.766;2.900;2023-03-13T12:14:37;98926.84;;;16.05;75.98
60852;BME280;48553;50.766;2.900;2023-03-13T12:17:42;98909.22;;;16.23;73.36
60852;BME280;48553;50.766;2.900;2023-03-13T12:20:52;98916.84;;;16.39;74.77
60852;BME280;48553;50.766;2.900;2023-03-13T12:24:12;98924.25;;;16.45;75.18
60852;BME280;48553;50.766;2.900;2023-03-13T12:30:32;98921.19;;;16.63;74.04
60852;BME280;48553;50.766;2.900;2023-03-13T12:33:39;98912.25;;;16.76;74.22
60852;BME280;48553;50.766;2.900;2023-03-13T12:36:51;98914.59;;;16.81;73.98
60852;BME280;48553;50.766;2.900;2023-03-13T12:40:09;98912.53;;;16.85;72.11
60852;BME280;48553;50.766;2.900;2023-03-13T12:43:30;98918.53;;;16.80;72.89
60852;BME280;48553;50.766;2.900;2023-03-13T12:46:43;98905.53;;;16.77;71.98
60852;BME280;48553;50.766;2.900;2023-03-13T12:50:22;98898.34;;;16.83;71.09
60852;BME280;48553;50.766;2.900;2023-03-13T12:53:41;98918.78;;;17.09;71.57
60852;BME280;48553;50.766;2.900;2023-03-13T13:00:14;98913.69;;;16.87;71.10
60852;BME280;48553;50.766;2.900;2023-03-13T13:03:34;98893.75;;;16.73;71.24
60852;BME280;48553;50.766;2.900;2023-03-13T13:06:54;98900.84;;;16.74;71.88
60852;BME280;48553;50.766;2.900;2023-03-13T13:16:18;98890.50;;;16.78;69.74
60852;BME280;48553;50.766;2.900;2023-03-13T13:25:38;98868.19;;;16.88;69.95
60852;BME280;48553;50.766;2.900;2023-03-13T13:28:38;98868.81;;;16.96;69.17
60852;BME280;48553;50.766;2.900;2023-03-13T13:35:00;98858.19;;;16.95;68.68
60852;BME280;48553;50.766;2.900;2023-03-13T13:41:22;98838.69;;;17.02;69.25
60852;BME280;48553;50.766;2.900;2023-03-13T13:44:27;98836.19;;;17.07;68.53
60852;BME280;48553;50.766;2.900;2023-03-13T13:47:30;98825.41;;;17.13;67.69
60852;BME280;48553;50.766;2.900;2023-03-13T13:50:31;98820.56;;;17.17;68.50
60852;BME280;48553;50.766;2.900;2023-03-13T13:53:33;98816.31;;;17.13;68.80
60852;BME280;48553;50.766;2.900;2023-03-13T13:56:49;98807.22;;;17.12;68.31
60852;BME280;48553;50.766;2.900;2023-03-13T14:02:58;98787.78;;;17.16;68.10
60852;BME280;48553;50.766;2.900;2023-03-13T14:06:01;98775.41;;;17.20;67.58
60852;BME280;48553;50.766;2.900;2023-03-13T14:12:36;98779.66;;;17.25;68.39
60852;BME280;48553;50.766;2.900;2023-03-13T14:15:41;98760.28;;;17.25;68.61
60852;BME280;48553;50.766;2.900;2023-03-13T14:18:42;98757.28;;;17.36;67.86
60852;BME280;48553;50.766;2.900;2023-03-13T14:21:42;98754.06;;;17.37;66.67
60852;BME280;48553;50.766;2.900;2023-03-13T14:24:55;98753.19;;;17.24;68.00
60852;BME280;48553;50.766;2.900;2023-03-13T14:27:56;98739.25;;;17.27;67.39
60852;BME280;48553;50.766;2.900;2023-03-13T14:30:57;98736.66;;;17.20;67.93
60852;BME280;48553;50.766;2.900;2023-03-13T14:34:00;98724.44;;;17.18;67.80
60852;BME280;48553;50.766;2.900;2023-03-13T14:37:01;98714.16;;;17.18;68.11
60852;BME280;48553;50.766;2.900;2023-03-13T14:40:06;98705.50;;;17.16;68.37
60852;BME280;48553;50.766;2.900;2023-03-13T14:43:41;98702.72;;;17.32;68.28
60852;BME280;48553;50.766;2.900;2023-03-13T14:46:42;98697.91;;;17.37;68.34
60852;BME280;48553;50.766;2.900;2023-03-13T14:49:45;98696.44;;;17.32;68.30
60852;BME280;48553;50.766;2.900;2023-03-13T14:52:51;98700.25;;;17.22;68.53
60852;BME280;48553;50.766;2.900;2023-03-13T14:56:15;98688.72;;;17.07;68.55
60852;BME280;48553;50.766;2.900;2023-03-13T14:59:23;98687.16;;;17.06;67.71
60852;BME280;48553;50.766;2.900;2023-03-13T15:02:28;98690.28;;;17.08;68.50
60852;BME280;48553;50.766;2.900;2023-03-13T15:05:31;98677.22;;;17.08;68.22
60852;BME280;48553;50.766;2.900;2023-03-13T15:08:33;98672.09;;;17.07;68.58
60852;BME280;48553;50.766;2.900;2023-03-13T15:11:34;98668.50;;;17.10;68.39
60852;BME280;48553;50.766;2.900;2023-03-13T15:14:42;98650.47;;;17.02;68.06
60852;BME280;48553;50.766;2.900;2023-03-13T15:17:43;98635.34;;;17.06;67.78
60852;BME280;48553;50.766;2.900;2023-03-13T15:20:51;98631.53;;;17.00;68.08
60852;BME280;48553;50.766;2.900;2023-03-13T15:26:58;98617.00;;;16.96;67.60
60852;BME280;48553;50.766;2.900;2023-03-13T15:29:58;98614.84;;;16.87;68.08
60852;BME280;48553;50.766;2.900;2023-03-13T15:32:59;98604.00;;;16.77;66.62
60852;BME280;48553;50.766;2.900;2023-03-13T15:35:59;98596.22;;;16.72;67.03
60852;BME280;48553;50.766;2.900;2023-03-13T15:39:00;98597.56;;;16.63;67.36
60852;BME280;48553;50.766;2.900;2023-03-13T15:42:00;98591.44;;;16.56;67.79
60852;BME280;48553;50.766;2.900;2023-03-13T15:45:00;98583.28;;;16.48;66.69
60852;BME280;48553;50.766;2.900;2023-03-13T15:48:01;98571.97;;;16.43;67.28
60852;BME280;48553;50.766;2.900;2023-03-13T15:51:02;98580.19;;;16.46;68.02
60852;BME280;48553;50.766;2.900;2023-03-13T15:54:05;98571.59;;;16.41;67.37
60852;BME280;48553;50.766;2.900;2023-03-13T15:57:08;98575.47;;;16.27;68.15
60852;BME280;48553;50.766;2.900;2023-03-13T16:00:28;98564.13;;;16.21;68.76
60852;BME280;48553;50.766;2.900;2023-03-13T16:03:28;98562.03;;;16.09;67.60
60852;BME280;48553;50.766;2.900;2023-03-13T16:06:29;98552.00;;;15.99;69.18
60852;BME280;48553;50.766;2.900;2023-03-13T16:09:32;98550.97;;;15.89;70.44
60852;BME280;48553;50.766;2.900;2023-03-13T16:12:33;98550.78;;;15.80;70.71
60852;BME280;48553;50.766;2.900;2023-03-13T16:15:34;98550.91;;;15.73;71.32
60852;BME280;48553;50.766;2.900;2023-03-13T16:18:34;98534.47;;;15.65;70.70
60852;BME280;48553;50.766;2.900;2023-03-13T16:21:35;98542.53;;;15.56;71.73
60852;BME280;48553;50.766;2.900;2023-03-13T16:24:39;98545.44;;;15.49;71.56
60852;BME280;48553;50.766;2.900;2023-03-13T16:27:41;98544.78;;;15.41;71.79
60852;BME280;48553;50.766;2.900;2023-03-13T16:30:42;98543.72;;;15.35;70.93
60852;BME280;48553;50.766;2.900;2023-03-13T16:33:43;98537.91;;;15.30;71.74
60852;BME280;48553;50.766;2.900;2023-03-13T16:36:43;98532.78;;;15.28;71.98
60852;BME280;48553;50.766;2.900;2023-03-13T16:39:45;98533.69;;;15.21;72.18
60852;BME280;48553;50.766;2.900;2023-03-13T16:42:46;98523.59;;;15.15;71.48
60852;BME280;48553;50.766;2.900;2023-03-13T16:45:46;98515.78;;;15.10;71.95
60852;BME280;48553;50.766;2.900;2023-03-13T16:48:48;98508.41;;;15.03;71.76
60852;BME280;48553;50.766;2.900;2023-03-13T16:51:49;98512.88;;;14.97;71.54
60852;BME280;48553;50.766;2.900;2023-03-13T16:54:50;98503.91;;;14.89;70.95
60852;BME280;48553;50.766;2.900;2023-03-13T16:57:50;98498.13;;;14.83;71.40
60852;BME280;48553;50.766;2.900;2023-03-13T17:00:51;98499.44;;;14.75;71.48
60852;BME280;48553;50.766;2.900;2023-03-13T17:03:52;98497.19;;;14.67;70.48
60852;BME280;48553;50.766;2.900;2023-03-13T17:06:52;98495.25;;;14.67;71.14
60852;BME280;48553;50.766;2.900;2023-03-13T17:09:53;98500.03;;;14.63;71.02
60852;BME280;48553;50.766;2.900;2023-03-13T17:12:53;98493.38;;;14.60;71.15
60852;BME280;48553;50.766;2.900;2023-03-13T17:15:54;98485.56;;;14.55;72.23
60852;BME280;48553;50.766;2.900;2023-03-13T17:18:55;98475.00;;;14.50;71.76
60852;BME280;48553;50.766;2.900;2023-03-13T17:21:55;98473.91;;;14.44;71.66
60852;BME280;48553;50.766;2.900;2023-03-13T17:24:56;98483.41;;;14.39;71.46
60852;BME280;48553;50.766;2.900;2023-03-13T17:27:56;98484.25;;;14.36;71.54
60852;BME280;48553;50.766;2.900;2023-03-13T17:30:57;98476.03;;;14.33;71.72